Norfork, Arkansas
Current Conditions -  °F | °C
As of 2:53 PM on Sunday 23 Nov 2014 (Local Time) from KBPK Reporting Station
Overcast Overcast  
Wind Chill: 58°   Ceiling: 700
Heat Index: 58°   Visibility: 10mi
Dew Point: 57°   Wind: 3mph
Humidity: 97%   Direction: 170°S
Pressure: 29.33"   Gusts: NA
Location:  36.21°N, 92.28°W
Report Text: KBPK 232053Z AUTO 17003KT 10SM OVC007 14/14 A2933 RMK AO2 CIG 004V010 SLP929 60001 T01440139 56021
Loading
Personal Weather Stations






























Interactive Weather Map New forecast layout! Learn more

10-Day Weather Forecast

Advertisements
Track Severe Weather on mobile